createdAt,value
2024-05-09T00:00:12.732Z,45.38
2024-05-09T00:01:09.231Z,45.32
2024-05-09T00:02:08.291Z,45.40
2024-05-09T00:03:09.699Z,45.39
2024-05-09T00:04:08.252Z,45.39
2024-05-09T00:05:08.291Z,45.39
2024-05-09T00:06:08.346Z,45.40
2024-05-09T00:07:08.212Z,45.34
2024-05-09T00:08:08.272Z,45.35
2024-05-09T00:09:08.257Z,45.28
2024-05-09T00:10:14.584Z,45.32
2024-05-09T00:11:09.283Z,45.38
2024-05-09T00:12:08.447Z,45.28
2024-05-09T00:13:08.636Z,45.35
2024-05-09T00:14:08.325Z,45.34
2024-05-09T00:15:08.222Z,45.34
2024-05-09T00:16:08.248Z,45.34
2024-05-09T00:17:08.266Z,45.27
2024-05-09T00:18:08.685Z,45.29
2024-05-09T00:19:08.320Z,45.29
2024-05-09T00:20:14.420Z,45.34
2024-05-09T00:21:09.500Z,45.33
2024-05-09T00:22:08.254Z,45.31
2024-05-09T00:23:08.694Z,45.27
2024-05-09T00:24:08.239Z,45.32
2024-05-09T00:25:08.250Z,45.31
2024-05-09T00:26:08.290Z,45.28
2024-05-09T00:27:09.048Z,45.32
2024-05-09T00:28:08.244Z,45.31
2024-05-09T00:29:08.365Z,45.24
2024-05-09T00:30:11.585Z,45.26
2024-05-09T00:31:09.241Z,45.30
2024-05-09T00:32:08.404Z,45.27
2024-05-09T00:33:09.849Z,45.24
2024-05-09T00:34:08.780Z,45.30
2024-05-09T00:35:09.342Z,45.24
2024-05-09T00:36:08.602Z,45.23
2024-05-09T00:37:08.712Z,45.23
2024-05-09T00:38:08.727Z,45.23
2024-05-09T00:39:08.859Z,45.28
2024-05-09T00:40:18.202Z,45.23
2024-05-09T00:41:09.952Z,45.18
2024-05-09T00:42:08.907Z,45.19
2024-05-09T00:43:08.983Z,45.26
2024-05-09T00:44:08.928Z,45.30
2024-05-09T00:45:08.860Z,45.22
2024-05-09T00:46:08.886Z,45.22
2024-05-09T00:47:09.032Z,45.22
2024-05-09T00:48:10.055Z,45.24
2024-05-09T00:49:08.998Z,45.20
2024-05-09T00:50:12.915Z,45.18
2024-05-09T00:51:09.975Z,45.22
2024-05-09T00:52:08.881Z,45.20
2024-05-09T00:53:08.940Z,45.18
2024-05-09T00:54:08.884Z,45.11
2024-05-09T00:55:08.895Z,45.18
2024-05-09T00:56:08.937Z,45.20
2024-05-09T00:57:08.906Z,45.17
2024-05-09T00:58:08.996Z,45.14
2024-05-09T00:59:08.914Z,45.17
2024-05-09T01:00:22.142Z,45.15
2024-05-09T01:01:09.944Z,45.23
2024-05-09T01:02:09.001Z,45.21
2024-05-09T01:03:10.839Z,45.17
2024-05-09T01:04:09.193Z,45.15
2024-05-09T01:05:09.018Z,45.19
2024-05-09T01:06:08.915Z,45.17
2024-05-09T01:07:08.913Z,45.13
2024-05-09T01:08:09.397Z,45.08
2024-05-09T01:09:08.916Z,45.17
2024-05-09T01:10:14.245Z,45.10
2024-05-09T01:11:09.995Z,45.15
2024-05-09T01:12:09.103Z,45.16
2024-05-09T01:13:08.907Z,45.15
2024-05-09T01:14:08.970Z,45.13
2024-05-09T01:15:08.920Z,45.15
2024-05-09T01:16:08.920Z,45.08
2024-05-09T01:17:09.008Z,45.11
2024-05-09T01:18:09.185Z,45.11
2024-05-09T01:19:09.048Z,45.06
2024-05-09T01:20:10.970Z,45.13
2024-05-09T01:21:10.051Z,45.09
2024-05-09T01:22:08.979Z,45.15
2024-05-09T01:23:09.375Z,45.04
2024-05-09T01:24:08.949Z,45.14
2024-05-09T01:25:08.950Z,45.10
2024-05-09T01:26:08.961Z,45.10
2024-05-09T01:27:08.959Z,45.06
2024-05-09T01:28:08.926Z,45.16
2024-05-09T01:29:09.062Z,45.13
2024-05-09T01:30:11.975Z,45.16
2024-05-09T01:31:09.950Z,45.06
2024-05-09T01:32:09.053Z,45.14
2024-05-09T01:33:10.818Z,45.10
2024-05-09T01:34:09.049Z,45.07
2024-05-09T01:35:08.994Z,45.06
2024-05-09T01:36:08.937Z,45.10
2024-05-09T01:37:08.962Z,45.11
2024-05-09T01:38:09.039Z,45.09
2024-05-09T01:39:08.971Z,45.08
2024-05-09T01:40:12.342Z,45.08
2024-05-09T01:41:09.938Z,45.00
2024-05-09T01:42:08.953Z,45.08
2024-05-09T01:43:10.297Z,45.05
2024-05-09T01:44:09.038Z,44.96
2024-05-09T01:45:08.986Z,45.03
2024-05-09T01:46:08.956Z,45.02
2024-05-09T01:47:09.099Z,45.01
2024-05-09T01:48:09.484Z,45.02
2024-05-09T01:49:09.268Z,45.06
2024-05-09T01:50:11.011Z,45.04
2024-05-09T01:51:09.360Z,45.07
2024-05-09T01:52:09.300Z,45.08
2024-05-09T01:53:09.648Z,44.99
2024-05-09T01:54:09.441Z,45.07
2024-05-09T01:55:09.464Z,45.00
2024-05-09T01:56:09.732Z,45.03
2024-05-09T01:57:09.607Z,44.96
2024-05-09T01:58:09.963Z,44.99
2024-05-09T01:59:09.793Z,45.02
2024-05-09T02:00:10.494Z,44.99
2024-05-09T02:01:09.953Z,44.93
2024-05-09T02:02:10.046Z,45.03
2024-05-09T02:03:11.016Z,44.97
2024-05-09T02:04:10.257Z,44.93
2024-05-09T02:05:10.201Z,44.92
2024-05-09T02:06:10.172Z,44.97
2024-05-09T02:07:10.038Z,44.93
2024-05-09T02:08:10.042Z,44.91
2024-05-09T02:09:10.025Z,45.01
2024-05-09T02:10:16.411Z,44.97
2024-05-09T02:11:11.224Z,44.96
2024-05-09T02:12:10.185Z,44.96
2024-05-09T02:13:10.068Z,44.95
2024-05-09T02:14:10.063Z,44.91
2024-05-09T02:15:10.049Z,44.93
2024-05-09T02:16:10.004Z,44.95
2024-05-09T02:17:10.133Z,44.92
2024-05-09T02:18:10.570Z,44.91
2024-05-09T02:19:10.166Z,44.93
2024-05-09T02:20:16.094Z,44.99
2024-05-09T02:21:11.121Z,44.91
2024-05-09T02:22:10.101Z,44.96
2024-05-09T02:23:10.135Z,44.94
2024-05-09T02:24:10.032Z,44.98
2024-05-09T02:25:10.044Z,44.94
2024-05-09T02:26:10.056Z,44.99
2024-05-09T02:27:10.049Z,44.93
2024-05-09T02:28:10.048Z,44.91
2024-05-09T02:29:10.062Z,44.92
2024-05-09T02:30:18.684Z,44.90
2024-05-09T02:31:11.091Z,44.91
2024-05-09T02:32:10.157Z,44.87
2024-05-09T02:33:11.977Z,44.88
2024-05-09T02:34:10.163Z,44.91
2024-05-09T02:35:10.197Z,44.92
2024-05-09T02:36:10.076Z,44.88
2024-05-09T02:37:10.093Z,44.93
2024-05-09T02:38:10.532Z,44.86
2024-05-09T02:39:10.075Z,44.94
2024-05-09T02:40:14.593Z,44.91
2024-05-09T02:41:11.209Z,44.93
2024-05-09T02:42:10.096Z,44.92
2024-05-09T02:43:11.308Z,44.84
2024-05-09T02:44:10.122Z,44.84
2024-05-09T02:45:10.103Z,44.88
2024-05-09T02:46:10.093Z,44.88
2024-05-09T02:47:10.166Z,44.91
2024-05-09T02:48:10.265Z,44.84
2024-05-09T02:49:10.168Z,44.86
2024-05-09T02:50:13.308Z,44.88
2024-05-09T02:51:11.430Z,44.88
2024-05-09T02:52:10.167Z,44.86
2024-05-09T02:53:10.407Z,44.81
2024-05-09T02:54:10.156Z,44.82
2024-05-09T02:55:10.136Z,44.84
2024-05-09T02:56:10.232Z,44.78
2024-05-09T02:57:10.145Z,44.82
2024-05-09T02:58:10.341Z,44.80
2024-05-09T02:59:10.184Z,44.80
2024-05-09T03:00:18.316Z,44.80
2024-05-09T03:01:11.306Z,44.78
2024-05-09T03:02:10.375Z,44.83
2024-05-09T03:03:12.547Z,44.77
2024-05-09T03:04:10.445Z,44.82
2024-05-09T03:05:10.258Z,44.77
2024-05-09T03:06:10.233Z,44.82
2024-05-09T03:07:10.257Z,44.81
2024-05-09T03:08:10.303Z,44.78
2024-05-09T03:09:10.251Z,44.77
2024-05-09T03:10:18.281Z,44.76
2024-05-09T03:11:11.305Z,44.78
2024-05-09T03:12:10.323Z,44.77
2024-05-09T03:13:10.259Z,44.78
2024-05-09T03:14:10.308Z,44.74
2024-05-09T03:15:10.273Z,44.74
2024-05-09T03:16:10.265Z,44.74
2024-05-09T03:17:10.406Z,44.74
2024-05-09T03:18:10.515Z,44.76
2024-05-09T03:19:10.374Z,44.77
2024-05-09T03:20:17.529Z,44.72
2024-05-09T03:21:11.506Z,44.81
2024-05-09T03:22:10.304Z,44.80
2024-05-09T03:23:10.659Z,44.74
2024-05-09T03:24:10.321Z,44.79
2024-05-09T03:25:10.294Z,44.75
2024-05-09T03:26:10.342Z,44.75
2024-05-09T03:27:10.299Z,44.74
2024-05-09T03:28:10.328Z,44.78
2024-05-09T03:29:10.382Z,44.80
2024-05-09T03:30:15.402Z,44.69
2024-05-09T03:31:11.396Z,44.73
2024-05-09T03:32:10.485Z,44.69
2024-05-09T03:33:10.687Z,44.79
2024-05-09T03:34:10.474Z,44.72
2024-05-09T03:35:10.452Z,44.69
2024-05-09T03:36:11.418Z,44.73
2024-05-09T03:37:10.421Z,44.72
2024-05-09T03:38:10.536Z,44.73
2024-05-09T03:39:10.469Z,44.73
2024-05-09T03:40:17.548Z,44.70
2024-05-09T03:41:11.528Z,44.79
2024-05-09T03:42:10.502Z,44.76
2024-05-09T03:43:10.502Z,44.66
2024-05-09T03:44:10.552Z,44.72
2024-05-09T03:45:10.502Z,44.70
2024-05-09T03:46:10.510Z,44.68
2024-05-09T03:47:10.575Z,44.75
2024-05-09T03:48:10.761Z,44.73
2024-05-09T03:49:10.622Z,44.62
2024-05-09T03:50:18.192Z,44.71
2024-05-09T03:51:11.708Z,44.72
2024-05-09T03:52:10.638Z,44.73
2024-05-09T03:53:10.840Z,44.70
2024-05-09T03:54:10.637Z,44.69
2024-05-09T03:55:10.597Z,44.70
2024-05-09T03:56:10.656Z,44.68
2024-05-09T03:57:10.627Z,44.69
2024-05-09T03:58:10.617Z,44.71
2024-05-09T03:59:10.785Z,44.71
2024-05-09T04:00:17.830Z,44.68
2024-05-09T04:01:11.708Z,44.70
2024-05-09T04:02:10.737Z,44.75
2024-05-09T04:03:12.591Z,44.71
2024-05-09T04:04:10.819Z,44.70
2024-05-09T04:05:10.688Z,44.73
2024-05-09T04:06:10.653Z,44.69
2024-05-09T04:07:10.660Z,44.72
2024-05-09T04:08:17.886Z,44.73
2024-05-09T04:09:17.803Z,44.64
2024-05-09T04:10:27.326Z,44.65
2024-05-09T04:11:18.906Z,44.75
2024-05-09T04:12:17.918Z,44.66
2024-05-09T04:13:17.815Z,44.67
2024-05-09T04:14:17.873Z,44.67
2024-05-09T04:15:17.828Z,44.66
2024-05-09T04:16:17.831Z,44.66
2024-05-09T04:17:17.882Z,44.69
2024-05-09T04:18:17.892Z,44.64
2024-05-09T04:19:18.095Z,44.66
2024-05-09T04:20:28.755Z,44.64
2024-05-09T04:21:18.837Z,44.64
2024-05-09T04:22:17.830Z,44.59
2024-05-09T04:23:17.893Z,44.64
2024-05-09T04:24:17.843Z,44.66
2024-05-09T04:25:17.842Z,44.67
2024-05-09T04:26:17.902Z,44.64
2024-05-09T04:27:17.949Z,44.70
2024-05-09T04:28:17.858Z,44.61
2024-05-09T04:29:17.906Z,44.67
2024-05-09T04:30:25.796Z,44.63
2024-05-09T04:31:29.961Z,44.68
2024-05-09T04:32:30.128Z,44.66
2024-05-09T04:33:30.709Z,44.63
2024-05-09T04:34:30.018Z,44.64
2024-05-09T04:35:29.983Z,44.64
2024-05-09T04:36:29.941Z,44.60
2024-05-09T04:37:29.979Z,44.65
2024-05-09T04:38:29.989Z,44.59
2024-05-09T04:39:29.947Z,44.62
2024-05-09T04:40:34.205Z,44.61
2024-05-09T04:41:31.049Z,44.57
2024-05-09T04:42:29.945Z,44.67
2024-05-09T04:43:29.972Z,44.63
2024-05-09T04:44:30.018Z,44.52
2024-05-09T04:45:29.981Z,44.58
2024-05-09T04:46:29.965Z,44.58
2024-05-09T04:47:30.112Z,44.59
2024-05-09T04:48:30.107Z,44.51
2024-05-09T04:49:30.058Z,44.46
2024-05-09T04:50:36.308Z,44.51
2024-05-09T04:51:30.990Z,44.55
2024-05-09T04:52:29.988Z,44.54
2024-05-09T04:53:29.990Z,44.58
2024-05-09T04:54:35.997Z,44.51
2024-05-09T04:55:31.044Z,44.52
2024-05-09T04:56:30.010Z,44.52
2024-05-09T04:57:29.989Z,44.54
2024-05-09T04:58:30.045Z,44.61
2024-05-09T04:59:30.052Z,44.64
2024-05-09T05:00:35.671Z,44.61
2024-05-09T05:01:30.996Z,44.58
2024-05-09T05:02:30.094Z,44.59
2024-05-09T05:03:30.109Z,44.57
2024-05-09T05:04:30.053Z,44.56
2024-05-09T05:05:29.997Z,44.77
2024-05-09T05:06:29.986Z,44.85
2024-05-09T05:07:30.000Z,45.16
2024-05-09T05:08:30.053Z,45.12
2024-05-09T05:09:30.028Z,45.07
2024-05-09T05:10:35.715Z,44.91
2024-05-09T05:11:31.153Z,44.91
2024-05-09T05:12:30.223Z,45.14
2024-05-09T05:13:30.114Z,45.55
2024-05-09T05:14:30.224Z,45.69
2024-05-09T05:15:30.084Z,45.76
2024-05-09T05:16:30.091Z,45.64
2024-05-09T05:17:30.251Z,45.62
2024-05-09T05:18:30.199Z,45.52
2024-05-09T05:19:30.258Z,45.55
2024-05-09T05:20:33.651Z,45.54
2024-05-09T05:21:30.304Z,45.60
2024-05-09T05:22:30.219Z,45.46
2024-05-09T05:23:30.294Z,45.45
2024-05-09T05:24:30.219Z,45.53
2024-05-09T05:25:30.201Z,46.17
2024-05-09T05:26:30.250Z,46.23
2024-05-09T05:27:30.211Z,46.20
2024-05-09T05:28:30.222Z,46.32
2024-05-09T05:29:30.224Z,46.31
2024-05-09T05:30:34.517Z,46.35
2024-05-09T05:31:30.254Z,46.44
2024-05-09T05:32:30.518Z,46.57
2024-05-09T05:33:30.442Z,46.58
2024-05-09T05:34:30.217Z,46.66
2024-05-09T05:35:30.416Z,46.69
2024-05-09T05:36:30.224Z,46.76
2024-05-09T05:37:30.208Z,46.79
2024-05-09T05:38:30.292Z,46.82
2024-05-09T05:39:30.192Z,46.88
2024-05-09T05:40:36.272Z,46.91
2024-05-09T05:41:31.283Z,46.86
2024-05-09T05:42:30.213Z,46.80
2024-05-09T05:43:30.211Z,46.98
2024-05-09T05:44:30.423Z,47.07
2024-05-09T05:45:30.210Z,47.08
2024-05-09T05:46:30.200Z,47.11
2024-05-09T05:47:30.364Z,47.05
2024-05-09T05:48:30.326Z,47.01
2024-05-09T05:49:30.317Z,47.03
2024-05-09T05:50:35.812Z,47.05
2024-05-09T05:51:31.206Z,47.06
2024-05-09T05:52:30.232Z,47.07
2024-05-09T05:53:30.332Z,47.07
2024-05-09T05:54:30.222Z,47.07
2024-05-09T05:55:30.243Z,47.05
2024-05-09T05:56:30.380Z,47.04
2024-05-09T05:57:30.298Z,47.05
2024-05-09T05:58:30.214Z,47.04
2024-05-09T05:59:30.244Z,47.04
2024-05-09T06:00:37.682Z,47.02
2024-05-09T06:01:31.280Z,46.97
2024-05-09T06:02:30.368Z,46.94
2024-05-09T06:03:30.416Z,46.90
2024-05-09T06:04:30.280Z,46.87
2024-05-09T06:05:30.263Z,46.83
2024-05-09T06:06:30.212Z,46.78
2024-05-09T06:07:30.230Z,46.76
2024-05-09T06:08:30.681Z,46.70
2024-05-09T06:09:30.203Z,46.69
2024-05-09T06:10:37.535Z,46.71
2024-05-09T06:11:31.398Z,46.74
2024-05-09T06:12:30.269Z,46.69
2024-05-09T06:13:30.223Z,46.62
2024-05-09T06:14:30.318Z,46.60
2024-05-09T06:15:30.230Z,46.56
2024-05-09T06:16:30.242Z,46.57
2024-05-09T06:17:30.407Z,46.53
2024-05-09T06:18:30.499Z,46.46
2024-05-09T06:19:30.466Z,46.43
2024-05-09T06:20:35.372Z,46.39
2024-05-09T06:21:31.269Z,46.41
2024-05-09T06:22:30.237Z,46.32
2024-05-09T06:23:30.293Z,46.26
2024-05-09T06:24:30.242Z,46.34
2024-05-09T06:25:30.290Z,46.31
2024-05-09T06:26:30.288Z,46.15
2024-05-09T06:27:30.225Z,46.00
2024-05-09T06:28:30.239Z,45.91
2024-05-09T06:29:30.409Z,45.85
2024-05-09T06:30:37.837Z,45.91
2024-05-09T06:31:31.363Z,45.89
2024-05-09T06:32:30.455Z,45.86
2024-05-09T06:33:30.767Z,45.87
2024-05-09T06:34:30.520Z,45.76
2024-05-09T06:35:30.505Z,45.69
2024-05-09T06:36:30.345Z,45.61
2024-05-09T06:37:30.371Z,45.59
2024-05-09T06:38:30.445Z,45.55
2024-05-09T06:39:30.402Z,45.50
2024-05-09T06:40:37.060Z,45.46
2024-05-09T06:41:31.546Z,45.46
2024-05-09T06:42:30.495Z,45.43
2024-05-09T06:43:30.515Z,45.40
2024-05-09T06:44:30.579Z,45.35
2024-05-09T06:45:30.492Z,45.29
2024-05-09T06:46:30.497Z,45.46
2024-05-09T06:47:30.587Z,45.28
2024-05-09T06:48:30.646Z,45.28
2024-05-09T06:49:30.681Z,45.52
2024-05-09T06:50:35.828Z,45.46
2024-05-09T06:51:31.606Z,45.43
2024-05-09T06:52:30.591Z,45.29
2024-05-09T06:53:30.629Z,45.12
2024-05-09T06:54:30.630Z,44.98
2024-05-09T06:55:30.617Z,44.98
2024-05-09T06:56:30.647Z,44.94
2024-05-09T06:57:30.587Z,44.93
2024-05-09T06:58:30.597Z,44.95
2024-05-09T06:59:30.690Z,45.04
2024-05-09T07:00:38.142Z,44.73
2024-05-09T07:01:31.675Z,44.66
2024-05-09T07:02:30.757Z,44.65
2024-05-09T07:03:30.752Z,44.71
2024-05-09T07:04:30.743Z,44.68
2024-05-09T07:05:30.737Z,44.59
2024-05-09T07:06:30.669Z,44.62
2024-05-09T07:07:30.663Z,44.59
2024-05-09T07:08:30.703Z,44.66
2024-05-09T07:09:30.675Z,44.63
2024-05-09T07:10:34.891Z,44.71
2024-05-09T07:11:31.833Z,44.75
2024-05-09T07:12:30.865Z,44.78
2024-05-09T07:13:30.757Z,44.76
2024-05-09T07:14:30.930Z,44.98
2024-05-09T07:15:30.767Z,44.91
2024-05-09T07:16:30.765Z,44.96
2024-05-09T07:17:30.931Z,44.99
2024-05-09T07:18:30.920Z,45.16
2024-05-09T07:19:30.927Z,45.29
2024-05-09T07:20:34.525Z,45.45
2024-05-09T07:21:30.780Z,45.51
2024-05-09T07:22:30.809Z,45.59
2024-05-09T07:23:30.817Z,45.54
2024-05-09T07:24:30.834Z,45.53
2024-05-09T07:25:30.996Z,45.62
2024-05-09T07:26:30.821Z,45.63
2024-05-09T07:27:30.814Z,45.68
2024-05-09T07:28:30.790Z,45.63
2024-05-09T07:29:30.838Z,45.67
2024-05-09T07:30:34.078Z,45.73
2024-05-09T07:31:30.825Z,45.79
2024-05-09T07:32:30.994Z,45.78
2024-05-09T07:33:30.911Z,45.80
2024-05-09T07:34:30.937Z,45.77
2024-05-09T07:35:31.291Z,45.83
2024-05-09T07:36:30.803Z,45.78
2024-05-09T07:37:30.813Z,45.75
2024-05-09T07:38:30.893Z,45.81
2024-05-09T07:39:30.815Z,45.81
2024-05-09T07:40:35.935Z,45.81
2024-05-09T07:41:31.883Z,45.78
2024-05-09T07:42:30.809Z,45.79
2024-05-09T07:43:30.820Z,45.75
2024-05-09T07:44:31.012Z,45.73
2024-05-09T07:45:47.434Z,45.74
2024-05-09T07:47:37.160Z,45.73
2024-05-09T07:48:57.466Z,45.73
2024-05-09T07:50:01.423Z,45.75
2024-05-09T07:53:08.491Z,45.73
2024-05-09T07:53:32.768Z,45.73
2024-05-09T07:53:40.588Z,45.70
2024-05-09T07:54:31.995Z,45.70
2024-05-09T07:55:31.099Z,45.65
2024-05-09T07:56:31.719Z,45.57
2024-05-09T07:57:30.921Z,45.52
2024-05-09T07:58:30.869Z,45.50
2024-05-09T07:59:33.316Z,45.45
2024-05-09T08:00:32.062Z,45.44
2024-05-09T08:01:30.879Z,45.41
2024-05-09T08:02:30.961Z,45.36
2024-05-09T08:03:30.930Z,45.28
2024-05-09T08:04:30.915Z,45.22
2024-05-09T08:05:31.042Z,45.23
2024-05-09T08:06:30.868Z,45.15
2024-05-09T08:07:30.844Z,45.07
2024-05-09T08:08:30.867Z,44.98
2024-05-09T08:09:30.877Z,45.02
2024-05-09T08:10:30.954Z,45.23
2024-05-09T08:11:30.879Z,45.28
2024-05-09T08:12:30.880Z,45.38
2024-05-09T08:13:30.880Z,45.41
2024-05-09T08:14:30.843Z,45.48
2024-05-09T08:15:30.933Z,45.54
2024-05-09T08:16:30.914Z,45.62
2024-05-09T08:17:30.959Z,45.68
2024-05-09T08:18:31.184Z,45.73
2024-05-09T08:19:30.894Z,45.73
2024-05-09T08:20:33.928Z,45.77
2024-05-09T08:21:30.935Z,45.84
2024-05-09T08:22:30.966Z,45.87
2024-05-09T08:23:30.871Z,45.93
2024-05-09T08:24:30.939Z,45.88
2024-05-09T08:25:30.890Z,45.85
2024-05-09T08:26:30.852Z,45.92
2024-05-09T08:27:30.891Z,45.96
2024-05-09T08:28:30.862Z,46.02
2024-05-09T08:29:30.860Z,46.03
2024-05-09T08:30:36.506Z,46.08
2024-05-09T08:31:31.983Z,46.05
2024-05-09T08:32:30.923Z,46.05
2024-05-09T08:33:31.158Z,46.17
2024-05-09T08:34:31.005Z,46.17
2024-05-09T08:35:30.913Z,46.21
2024-05-09T08:36:30.939Z,46.21
2024-05-09T08:38:30.876Z,46.17
2024-05-09T08:39:30.898Z,46.21
2024-05-09T08:40:35.152Z,46.20
2024-05-09T08:41:31.866Z,46.24
2024-05-09T08:42:30.904Z,46.26
2024-05-09T08:43:30.964Z,46.24
2024-05-09T08:44:30.893Z,46.23
2024-05-09T08:45:31.011Z,46.20
2024-05-09T08:46:30.926Z,46.17
2024-05-09T08:47:30.958Z,46.15
2024-05-09T08:48:31.054Z,46.10
2024-05-09T08:49:31.021Z,46.09
2024-05-09T08:50:37.890Z,46.06
2024-05-09T08:51:31.923Z,45.99
2024-05-09T08:52:30.884Z,46.04
2024-05-09T08:53:30.924Z,45.96
2024-05-09T08:54:30.904Z,45.91
2024-05-09T08:55:30.889Z,45.78
2024-05-09T08:56:30.894Z,45.72
2024-05-09T08:57:30.945Z,45.74
2024-05-09T08:58:30.887Z,45.70
2024-05-09T08:59:30.891Z,45.73
2024-05-09T09:00:36.587Z,45.69
2024-05-09T09:01:32.050Z,45.68
2024-05-09T09:02:31.041Z,45.61
2024-05-09T09:03:31.058Z,45.61
2024-05-09T09:04:30.924Z,45.52
2024-05-09T09:05:31.132Z,45.43
2024-05-09T09:06:30.928Z,45.35
2024-05-09T09:07:30.953Z,45.13
2024-05-09T09:08:30.907Z,45.16
2024-05-09T09:09:30.981Z,45.10
2024-05-09T09:10:32.516Z,45.20
2024-05-09T09:11:30.954Z,44.96
2024-05-09T09:12:30.970Z,44.86
2024-05-09T09:13:30.961Z,44.80
2024-05-09T09:14:31.000Z,44.71
2024-05-09T09:15:31.097Z,44.65
2024-05-09T09:16:31.137Z,44.70
2024-05-09T09:17:31.187Z,44.87
2024-05-09T09:18:31.456Z,45.00
2024-05-09T09:19:31.264Z,45.10
2024-05-09T09:20:36.277Z,45.17
2024-05-09T09:21:32.327Z,45.27
2024-05-09T09:22:31.205Z,45.31
2024-05-09T09:23:31.232Z,45.36
2024-05-09T09:24:31.239Z,45.45
2024-05-09T09:25:31.190Z,45.51
2024-05-09T09:26:31.237Z,45.55
2024-05-09T09:27:31.263Z,45.53
2024-05-09T09:28:31.703Z,45.60
2024-05-09T09:29:31.203Z,45.69
2024-05-09T09:30:36.619Z,45.68
2024-05-09T09:31:32.297Z,45.79
2024-05-09T09:32:31.304Z,45.80
2024-05-09T09:33:31.391Z,45.83
2024-05-09T09:34:31.674Z,45.84
2024-05-09T09:35:31.203Z,45.86
2024-05-09T09:36:31.282Z,45.83
2024-05-09T09:37:31.223Z,45.84
2024-05-09T09:38:31.249Z,45.92
2024-05-09T09:39:31.257Z,45.90
2024-05-09T09:40:33.044Z,45.92
2024-05-09T09:41:31.220Z,45.92
2024-05-09T09:42:31.262Z,45.91
2024-05-09T09:43:31.218Z,45.88
2024-05-09T09:44:31.225Z,45.87
2024-05-09T09:45:31.230Z,45.91
2024-05-09T09:46:31.280Z,45.86
2024-05-09T09:47:31.244Z,45.91
2024-05-09T09:48:31.389Z,45.88
2024-05-09T09:49:31.269Z,45.90
2024-05-09T09:50:34.552Z,45.84
2024-05-09T09:51:31.233Z,45.86
2024-05-09T09:52:31.258Z,45.85
2024-05-09T09:53:31.227Z,45.78
2024-05-09T09:54:31.255Z,45.74
2024-05-09T09:55:31.229Z,45.74
2024-05-09T09:56:31.251Z,45.68
2024-05-09T09:57:31.269Z,45.63
2024-05-09T09:58:31.274Z,45.60
2024-05-09T09:59:31.249Z,45.69
2024-05-09T10:00:33.395Z,45.82
2024-05-09T10:01:31.296Z,45.90
2024-05-09T10:02:31.382Z,45.94
2024-05-09T10:03:31.318Z,45.93
2024-05-09T10:04:31.301Z,45.98
2024-05-09T10:05:31.377Z,46.01
2024-05-09T10:06:31.271Z,46.02
2024-05-09T10:07:31.218Z,46.07
2024-05-09T10:08:31.252Z,46.12
2024-05-09T10:09:31.246Z,46.12
2024-05-09T10:10:32.997Z,46.15
2024-05-09T10:11:32.839Z,46.18
2024-05-09T10:12:31.324Z,46.19
2024-05-09T10:13:31.266Z,46.25
2024-05-09T10:14:31.226Z,46.24
2024-05-09T10:15:31.361Z,46.30
2024-05-09T10:16:31.304Z,46.35
2024-05-09T10:17:31.307Z,46.33
2024-05-09T10:18:32.744Z,46.29
2024-05-09T10:19:31.371Z,46.30
2024-05-09T10:20:32.935Z,46.28
2024-05-09T10:21:31.338Z,46.30
2024-05-09T10:22:31.253Z,46.35
2024-05-09T10:23:31.252Z,46.33
2024-05-09T10:24:31.278Z,46.29
2024-05-09T10:25:31.263Z,46.28
2024-05-09T10:26:31.233Z,46.23
2024-05-09T10:27:31.290Z,46.20
2024-05-09T10:28:31.278Z,46.14
2024-05-09T10:29:31.263Z,46.10
2024-05-09T10:30:35.907Z,46.08
2024-05-09T10:31:32.343Z,46.06
2024-05-09T10:32:31.310Z,46.04
2024-05-09T10:33:31.387Z,45.97
2024-05-09T10:34:31.306Z,45.96
2024-05-09T10:35:31.379Z,45.91
2024-05-09T10:36:31.343Z,45.78
2024-05-09T10:37:31.345Z,45.72
2024-05-09T10:38:31.285Z,45.64
2024-05-09T10:39:31.284Z,45.56
2024-05-09T10:40:32.031Z,45.52
2024-05-09T10:41:31.289Z,45.44
2024-05-09T10:42:31.337Z,45.47
2024-05-09T10:43:31.308Z,45.59
2024-05-09T10:44:31.349Z,45.60
2024-05-09T10:45:31.492Z,45.57
2024-05-09T10:46:31.502Z,45.59
2024-05-09T10:47:31.519Z,45.58
2024-05-09T10:48:31.565Z,45.62
2024-05-09T10:49:31.551Z,45.66
2024-05-09T10:50:34.267Z,45.74
2024-05-09T10:51:31.674Z,45.73
2024-05-09T10:52:31.602Z,45.80
2024-05-09T10:53:31.607Z,45.88
2024-05-09T10:54:31.653Z,45.83
2024-05-09T10:55:31.625Z,45.87
2024-05-09T10:56:31.620Z,45.94
2024-05-09T10:57:31.615Z,45.99
2024-05-09T10:58:31.594Z,45.99
2024-05-09T10:59:31.603Z,46.02
2024-05-09T11:00:35.782Z,46.11
2024-05-09T11:01:32.785Z,46.10
2024-05-09T11:02:31.781Z,46.09
2024-05-09T11:03:31.818Z,46.05
2024-05-09T11:04:31.717Z,46.13
2024-05-09T11:05:31.735Z,46.17
2024-05-09T11:06:31.784Z,46.12
2024-05-09T11:07:31.686Z,46.08
2024-05-09T11:08:31.751Z,46.06
2024-05-09T11:09:31.671Z,46.00
2024-05-09T11:10:34.119Z,45.95
2024-05-09T11:11:32.674Z,45.96
2024-05-09T11:12:31.707Z,46.00
2024-05-09T11:13:31.852Z,45.97
2024-05-09T11:14:31.711Z,45.92
2024-05-09T11:15:31.679Z,45.88
2024-05-09T11:16:31.662Z,45.86
2024-05-09T11:17:31.630Z,45.86
2024-05-09T11:18:35.027Z,45.83
2024-05-09T11:19:32.790Z,45.78
2024-05-09T11:20:34.680Z,45.74
2024-05-09T11:21:31.702Z,45.69
2024-05-09T11:22:31.745Z,45.66
2024-05-09T11:23:31.613Z,45.62
2024-05-09T11:24:31.640Z,45.55
2024-05-09T11:25:31.634Z,45.46
2024-05-09T11:26:31.698Z,45.43
2024-05-09T11:27:31.695Z,45.42
2024-05-09T11:28:31.626Z,45.50
2024-05-09T11:29:31.636Z,45.72
2024-05-09T11:30:32.385Z,45.83
2024-05-09T11:31:31.842Z,45.85
2024-05-09T11:32:31.770Z,45.96
2024-05-09T11:33:52.759Z,45.98
2024-05-09T11:34:31.812Z,46.06
2024-05-09T11:35:31.644Z,46.12
2024-05-09T11:36:31.685Z,46.12
2024-05-09T11:37:34.033Z,46.16
2024-05-09T11:38:31.659Z,46.19
2024-05-09T11:39:31.659Z,46.20
2024-05-09T11:40:34.343Z,46.24
2024-05-09T11:41:31.654Z,46.23
2024-05-09T11:42:31.644Z,46.20
2024-05-09T11:43:31.699Z,46.22
2024-05-09T11:44:31.660Z,46.23
2024-05-09T11:45:31.675Z,46.24
2024-05-09T11:46:31.653Z,46.22
2024-05-09T11:47:31.716Z,46.23
2024-05-09T11:48:32.016Z,46.24
2024-05-09T11:49:31.766Z,46.24
2024-05-09T11:50:35.449Z,46.25
2024-05-09T11:51:31.694Z,46.24
2024-05-09T11:52:31.648Z,46.27
2024-05-09T11:53:31.685Z,46.22
2024-05-09T11:54:31.708Z,46.17
2024-05-09T11:55:31.704Z,46.12
2024-05-09T11:56:31.659Z,46.08
2024-05-09T11:57:31.738Z,46.08
2024-05-09T11:58:31.685Z,46.03
2024-05-09T11:59:31.667Z,45.97
2024-05-09T12:00:36.704Z,45.95
2024-05-09T12:01:32.777Z,45.85
2024-05-09T12:02:31.714Z,45.80
2024-05-09T12:03:31.721Z,45.69
2024-05-09T12:04:31.915Z,45.63
2024-05-09T12:05:31.763Z,45.56
2024-05-09T12:06:31.709Z,45.43
2024-05-09T12:07:31.759Z,45.53
2024-05-09T12:08:31.690Z,45.62
2024-05-09T12:09:31.750Z,45.78
2024-05-09T12:10:34.129Z,45.77
2024-05-09T12:11:31.707Z,45.83
2024-05-09T12:12:32.603Z,45.86
2024-05-09T12:13:31.736Z,45.93
2024-05-09T12:14:31.667Z,45.94
2024-05-09T12:15:31.722Z,45.96
2024-05-09T12:16:32.026Z,45.98
2024-05-09T12:17:31.820Z,45.94
2024-05-09T12:18:31.779Z,45.98
2024-05-09T12:19:31.736Z,46.03
2024-05-09T12:20:36.353Z,46.03
2024-05-09T12:21:32.764Z,46.07
2024-05-09T12:22:31.696Z,46.10
2024-05-09T12:23:31.700Z,46.10
2024-05-09T12:24:31.726Z,46.11
2024-05-09T12:25:31.702Z,46.16
2024-05-09T12:26:31.679Z,46.16
2024-05-09T12:27:31.714Z,46.18
2024-05-09T12:28:31.723Z,46.18
2024-05-09T12:29:31.707Z,46.17
2024-05-09T12:30:36.494Z,46.18
2024-05-09T12:31:32.787Z,46.17
2024-05-09T12:32:31.699Z,46.14
2024-05-09T12:33:31.805Z,46.09
2024-05-09T12:34:31.802Z,46.04
2024-05-09T12:35:31.747Z,45.98
2024-05-09T12:36:31.748Z,45.97
2024-05-09T12:37:31.693Z,45.92
2024-05-09T12:38:31.721Z,45.85
2024-05-09T12:39:31.750Z,45.80
2024-05-09T12:40:36.492Z,45.77
2024-05-09T12:41:32.691Z,45.71
2024-05-09T12:42:33.714Z,45.68
2024-05-09T12:43:31.840Z,45.70
2024-05-09T12:44:31.735Z,45.86
2024-05-09T12:45:31.976Z,45.96
2024-05-09T12:46:31.794Z,46.07
2024-05-09T12:47:31.786Z,46.12
2024-05-09T12:48:31.909Z,46.16
2024-05-09T12:49:31.935Z,46.07
2024-05-09T12:50:33.881Z,46.16
2024-05-09T12:51:31.760Z,46.20
2024-05-09T12:52:31.740Z,46.24
2024-05-09T12:53:31.749Z,46.28
2024-05-09T12:54:31.814Z,46.33
2024-05-09T12:55:37.629Z,46.32